Ringaskiddy, Ireland
Current Conditions -  °F | °C
As of 12:00 PM on Sunday 23 Nov 2014 (Local Time) from EICK Reporting Station
Few Clouds Few Clouds  
Wind Chill: 40°   Ceiling: Unl
Heat Index: 43°   Visibility: 6mi
Dew Point: 37°   Wind: 5mph
Humidity: 81%   Direction: 300°WNW
Pressure: 30.18"   Gusts: NA
Location:  51.83°N, 8.32°W
Report Text: EICK 231100Z 30004KT 9999 FEW026 06/03 Q1022 NOSIG
Loading
Personal Weather Stations






























Interactive Weather Map New forecast layout! Learn more

10-Day Weather Forecast

Advertisements
Track Severe Weather on mobile